KTBN

Waynesville-St Robert Regional Forney Field Airport

Fort Leonard Wood, Missouri, USA
METAR KTBN 170956Z AUTO 00000KT 10SM CLR M18/M21 A3063 RMK AO2 SLP405 T11851209
Observed Flight Rules
Jan-17 @ 09:56 UTC (39 minutes ago) Visual Flight Rules
Wind Visibility Clouds
Calm 10 miles
  • Clear skies
Temperatures Readings
Current -19°C / -2°F
Dewpoint -21°C / -6°F
Humidity 84%
Altimeter 30.63" Hg
Pressure 1040.5 hPa
Elevation 353
METAR KTBN 170956Z AUTO 00000KT 10SM CLR M18/M21 A3063 RMK AO2 SLP405 T11851209
Observed Flight Rules
Jan-17 @ 09:56 UTC
(39 minutes ago)
VFR
Wind Visibility
Calm 10 miles
Clouds
  • Clear skies
Temperature Dewpoint
-19°C / -2°F -21°C / -6°F
Humidity Altimeter Pressure
84% 30.63" Hg 1040.5 hPa